KDCU

Pryor Field Regional Airport

Decatur, Alabama, USA
METAR KDCU 221453Z AUTO 14005KT 10SM CLR 11/05 A3032 RMK AO2 SLP267 T01110050 50001
Observed Flight Rules
Oct-22 @ 14:53 UTC (23 minutes ago) Visual Flight Rules
Wind Visibility Clouds
140° at 5 knots 10 miles
  • Clear skies
Temperatures Readings
Current 11°C / 52°F
Dewpoint 5°C / 41°F
Humidity 67%
Altimeter 30.32" Hg
Pressure 1026.7 hPa
Elevation 176
METAR KDCU 221453Z AUTO 14005KT 10SM CLR 11/05 A3032 RMK AO2 SLP267 T01110050 50001
Observed Flight Rules
Oct-22 @ 14:53 UTC
(23 minutes ago)
VFR
Wind Visibility
140° at 5 knots 10 miles
Clouds
  • Clear skies
Temperature Dewpoint
11°C / 52°F 5°C / 41°F
Humidity Altimeter Pressure
67% 30.32" Hg 1026.7 hPa